Time,TemperatureF,DewpointF,PressureIn,WindDirection,WindDirectionDegrees,WindSpeedMPH,WindSpeedGustMPH,Humidity,HourlyPrecipIn,Conditions,Clouds,dailyrainin,SoftwareType,DateUTC
2013-05-26 00:22:00,50.0,48.0,30.05,WSW,248,18.0,-999.0,94,-99.99,,,-99.99,,2013-05-26 07:22:00,
2013-05-26 00:32:00,50.0,48.0,30.05,WSW,248,18.0,-999.0,94,-99.99,,,-99.99,,2013-05-26 07:32:00,
2013-05-26 00:42:00,50.0,48.0,30.05,WSW,248,18.0,-999.0,94,-99.99,,,-99.99,,2013-05-26 07:42:00,
2013-05-26 00:52:00,50.0,48.0,30.05,WSW,248,18.0,-999.0,94,-99.99,,,-99.99,,2013-05-26 07:52:00,
2013-05-26 01:01:00,50.0,48.0,30.05,WSW,248,18.0,-999.0,94,-99.99,,,-99.99,,2013-05-26 08:01:00,
2013-05-26 02:11:00,51.0,50.0,30.05,SW,223,9.0,-999.0,95,-99.99,,,-99.99,,2013-05-26 09:11:00,
2013-05-26 02:22:00,51.0,50.0,30.05,SW,223,9.0,-999.0,95,-99.99,,,-99.99,,2013-05-26 09:22:00,
2013-05-26 02:33:00,51.0,50.0,30.05,SW,223,9.0,-999.0,95,-99.99,,,-99.99,,2013-05-26 09:33:00,
2013-05-26 02:43:00,51.0,50.0,30.05,SW,223,9.0,-999.0,95,-99.99,,,-99.99,,2013-05-26 09:43:00,
2013-05-26 02:53:00,51.0,50.0,30.05,SW,223,9.0,-999.0,95,-99.99,,,-99.99,,2013-05-26 09:53:00,
2013-05-26 03:02:00,51.0,50.0,30.05,SW,223,9.0,-999.0,95,-99.99,,,-99.99,,2013-05-26 10:02:00,
2013-05-26 04:22:00,51.0,50.0,30.04,WSW,254,10.0,-999.0,95,-99.99,,,-99.99,,2013-05-26 11:22:00,
2013-05-26 04:32:00,51.0,50.0,30.04,WSW,254,10.0,-999.0,95,-99.99,,,-99.99,,2013-05-26 11:32:00,
2013-05-26 04:42:00,51.0,50.0,30.04,WSW,254,10.0,-999.0,95,-99.99,,,-99.99,,2013-05-26 11:42:00,
2013-05-26 04:52:00,51.0,50.0,30.04,WSW,254,10.0,-999.0,95,-99.99,,,-99.99,,2013-05-26 11:52:00,
2013-05-26 05:01:00,51.0,50.0,30.04,WSW,254,10.0,-999.0,95,-99.99,,,-99.99,,2013-05-26 12:01:00,
2013-05-26 06:22:00,51.0,50.0,30.06,WSW,250,9.0,-999.0,96,-99.99,,,-99.99,,2013-05-26 13:22:00,
2013-05-26 06:32:00,51.0,50.0,30.06,WSW,250,9.0,-999.0,96,-99.99,,,-99.99,,2013-05-26 13:32:00,
2013-05-26 06:42:00,51.0,50.0,30.06,WSW,250,9.0,-999.0,96,-99.99,,,-99.99,,2013-05-26 13:42:00,
2013-05-26 06:52:00,51.0,50.0,30.06,WSW,250,9.0,-999.0,96,-99.99,,,-99.99,,2013-05-26 13:52:00,
2013-05-26 07:01:00,51.0,50.0,30.06,WSW,250,9.0,-999.0,96,-99.99,,,-99.99,,2013-05-26 14:01:00,
2013-05-26 08:22:00,52.0,51.0,30.09,SW,232,8.0,-999.0,96,-99.99,,,-99.99,,2013-05-26 15:22:00,
2013-05-26 08:33:00,52.0,51.0,30.09,SW,232,8.0,-999.0,96,-99.99,,,-99.99,,2013-05-26 15:33:00,
2013-05-26 08:43:00,52.0,51.0,30.09,SW,232,8.0,-999.0,96,-99.99,,,-99.99,,2013-05-26 15:43:00,
2013-05-26 08:53:00,52.0,51.0,30.09,SW,232,8.0,-999.0,96,-99.99,,,-99.99,,2013-05-26 15:53:00,
2013-05-26 09:03:00,52.0,51.0,30.09,SW,232,8.0,-999.0,96,-99.99,,,-99.99,,2013-05-26 16:03:00,
2013-05-26 10:23:00,54.0,53.0,30.10,SW,236,7.0,-999.0,95,-99.99,,,-99.99,,2013-05-26 17:23:00,
2013-05-26 10:32:00,54.0,53.0,30.10,SW,236,7.0,-999.0,95,-99.99,,,-99.99,,2013-05-26 17:32:00,
2013-05-26 10:42:00,54.0,53.0,30.10,SW,236,7.0,-999.0,95,-99.99,,,-99.99,,2013-05-26 17:42:00,
2013-05-26 10:52:00,54.0,53.0,30.10,SW,236,7.0,-999.0,95,-99.99,,,-99.99,,2013-05-26 17:52:00,
2013-05-26 11:01:00,54.0,53.0,30.10,SW,236,7.0,-999.0,95,-99.99,,,-99.99,,2013-05-26 18:01:00,
2013-05-26 12:22:00,56.0,53.0,30.11,West,269,11.0,-999.0,90,-99.99,,,-99.99,,2013-05-26 19:22:00,
2013-05-26 12:32:00,56.0,53.0,30.11,West,269,11.0,-999.0,90,-99.99,,,-99.99,,2013-05-26 19:32:00,
2013-05-26 12:42:00,56.0,53.0,30.11,West,269,11.0,-999.0,90,-99.99,,,-99.99,,2013-05-26 19:42:00,
2013-05-26 12:52:00,56.0,53.0,30.11,West,269,11.0,-999.0,90,-99.99,,,-99.99,,2013-05-26 19:52:00,
2013-05-26 13:01:00,56.0,53.0,30.11,West,269,11.0,-999.0,90,-99.99,,,-99.99,,2013-05-26 20:01:00,
2013-05-26 14:22:00,56.0,52.0,30.11,West,272,9.0,-999.0,86,-99.99,,,-99.99,,2013-05-26 21:22:00,
2013-05-26 14:33:00,56.0,52.0,30.11,West,272,9.0,-999.0,86,-99.99,,,-99.99,,2013-05-26 21:33:00,
2013-05-26 14:43:00,56.0,52.0,30.11,West,272,9.0,-999.0,86,-99.99,,,-99.99,,2013-05-26 21:43:00,
2013-05-26 14:53:00,56.0,52.0,30.11,West,272,9.0,-999.0,86,-99.99,,,-99.99,,2013-05-26 21:53:00,
2013-05-26 15:02:00,56.0,52.0,30.11,West,272,9.0,-999.0,86,-99.99,,,-99.99,,2013-05-26 22:02:00,
2013-05-26 16:22:00,56.0,52.0,30.10,SSW,209,11.0,-999.0,87,-99.99,,,-99.99,,2013-05-26 23:22:00,
2013-05-26 16:32:00,56.0,52.0,30.10,SSW,209,11.0,-999.0,87,-99.99,,,-99.99,,2013-05-26 23:32:00,
2013-05-26 16:43:00,56.0,52.0,30.10,SSW,209,11.0,-999.0,87,-99.99,,,-99.99,,2013-05-26 23:43:00,
2013-05-26 16:52:00,56.0,52.0,30.10,SSW,209,11.0,-999.0,87,-99.99,,,-99.99,,2013-05-26 23:52:00,
2013-05-26 17:01:00,56.0,52.0,30.10,SSW,209,11.0,-999.0,87,-99.99,,,-99.99,,2013-05-27 00:01:00,
2013-05-26 18:22:00,55.0,52.0,30.08,SW,218,11.0,-999.0,90,-99.99,,,-99.99,,2013-05-27 01:22:00,
2013-05-26 18:32:00,55.0,52.0,30.08,SW,218,11.0,-999.0,90,-99.99,,,-99.99,,2013-05-27 01:32:00,
2013-05-26 18:42:00,55.0,52.0,30.08,SW,218,11.0,-999.0,90,-99.99,,,-99.99,,2013-05-27 01:42:00,
2013-05-26 18:52:00,55.0,52.0,30.08,SW,218,11.0,-999.0,90,-99.99,,,-99.99,,2013-05-27 01:52:00,
2013-05-26 19:01:00,55.0,52.0,30.08,SW,218,11.0,-999.0,90,-99.99,,,-99.99,,2013-05-27 02:01:00,
2013-05-26 20:21:00,52.0,50.0,30.09,SSW,209,7.0,-999.0,94,-99.99,,,-99.99,,2013-05-27 03:21:00,
2013-05-26 20:33:00,52.0,50.0,30.09,SSW,209,7.0,-999.0,94,-99.99,,,-99.99,,2013-05-27 03:33:00,
2013-05-26 20:43:00,52.0,50.0,30.09,SSW,209,7.0,-999.0,94,-99.99,,,-99.99,,2013-05-27 03:43:00,
2013-05-26 20:53:00,52.0,50.0,30.09,SSW,209,7.0,-999.0,94,-99.99,,,-99.99,,2013-05-27 03:53:00,
2013-05-26 21:02:00,52.0,50.0,30.09,SSW,209,7.0,-999.0,94,-99.99,,,-99.99,,2013-05-27 04:02:00,
2013-05-26 22:22:00,52.0,51.0,30.11,West,267,18.0,-999.0,95,-99.99,,,-99.99,,2013-05-27 05:22:00,
2013-05-26 22:32:00,52.0,51.0,30.11,West,267,18.0,-999.0,95,-99.99,,,-99.99,,2013-05-27 05:32:00,
2013-05-26 22:42:00,52.0,51.0,30.11,West,267,18.0,-999.0,95,-99.99,,,-99.99,,2013-05-27 05:42:00,
2013-05-26 22:52:00,52.0,51.0,30.11,West,267,18.0,-999.0,95,-99.99,,,-99.99,,2013-05-27 05:52:00,
2013-05-26 23:01:00,52.0,51.0,30.11,West,267,18.0,-999.0,95,-99.99,,,-99.99,,2013-05-27 06:01:00,